sensor_id;sensor_type;location;lat;lon;timestamp;temperature;humidity
26336;DHT22;14047;50.936;4.654;2023-09-30T00:00:45;13.80;99.90
26336;DHT22;14047;50.936;4.654;2023-09-30T00:03:11;13.80;99.90
26336;DHT22;14047;50.936;4.654;2023-09-30T00:05:38;13.80;99.90
26336;DHT22;14047;50.936;4.654;2023-09-30T00:08:04;13.80;99.90
26336;DHT22;14047;50.936;4.654;2023-09-30T00:10:30;13.90;99.90
26336;DHT22;14047;50.936;4.654;2023-09-30T00:12:57;13.80;99.90
26336;DHT22;14047;50.936;4.654;2023-09-30T00:15:24;13.80;99.90
26336;DHT22;14047;50.936;4.654;2023-09-30T00:17:50;13.70;99.90
26336;DHT22;14047;50.936;4.654;2023-09-30T00:20:16;13.70;99.90
26336;DHT22;14047;50.936;4.654;2023-09-30T00:22:43;13.70;99.90
26336;DHT22;14047;50.936;4.654;2023-09-30T00:25:09;13.70;99.90
26336;DHT22;14047;50.936;4.654;2023-09-30T00:27:36;13.70;99.90
26336;DHT22;14047;50.936;4.654;2023-09-30T00:30:02;13.70;99.90
26336;DHT22;14047;50.936;4.654;2023-09-30T00:32:29;13.70;99.90
26336;DHT22;14047;50.936;4.654;2023-09-30T00:34:56;13.70;99.90
26336;DHT22;14047;50.936;4.654;2023-09-30T00:37:22;13.70;99.90
26336;DHT22;14047;50.936;4.654;2023-09-30T00:39:48;13.70;99.90
26336;DHT22;14047;50.936;4.654;2023-09-30T00:42:14;13.70;99.90
26336;DHT22;14047;50.936;4.654;2023-09-30T00:44:40;13.70;99.90
26336;DHT22;14047;50.936;4.654;2023-09-30T00:47:06;13.70;99.90
26336;DHT22;14047;50.936;4.654;2023-09-30T00:49:32;13.60;99.90
26336;DHT22;14047;50.936;4.654;2023-09-30T00:51:59;13.60;99.90
26336;DHT22;14047;50.936;4.654;2023-09-30T00:54:27;13.60;99.90
26336;DHT22;14047;50.936;4.654;2023-09-30T00:56:54;13.60;99.90
26336;DHT22;14047;50.936;4.654;2023-09-30T00:59:25;13.60;99.90
26336;DHT22;14047;50.936;4.654;2023-09-30T01:01:54;13.60;99.90
26336;DHT22;14047;50.936;4.654;2023-09-30T01:04:21;13.60;99.90
26336;DHT22;14047;50.936;4.654;2023-09-30T01:06:47;13.50;99.90
26336;DHT22;14047;50.936;4.654;2023-09-30T01:09:13;13.50;99.90
26336;DHT22;14047;50.936;4.654;2023-09-30T01:11:40;13.50;99.90
26336;DHT22;14047;50.936;4.654;2023-09-30T01:14:31;13.50;99.90
26336;DHT22;14047;50.936;4.654;2023-09-30T01:16:57;13.50;99.90
26336;DHT22;14047;50.936;4.654;2023-09-30T01:19:24;13.50;99.90
26336;DHT22;14047;50.936;4.654;2023-09-30T01:21:53;13.50;99.90
26336;DHT22;14047;50.936;4.654;2023-09-30T01:24:20;13.50;99.90
26336;DHT22;14047;50.936;4.654;2023-09-30T01:26:46;13.40;99.90
26336;DHT22;14047;50.936;4.654;2023-09-30T01:29:12;13.40;99.90
26336;DHT22;14047;50.936;4.654;2023-09-30T01:31:38;13.40;99.90
26336;DHT22;14047;50.936;4.654;2023-09-30T01:34:05;13.30;99.90
26336;DHT22;14047;50.936;4.654;2023-09-30T01:36:31;13.30;99.90
26336;DHT22;14047;50.936;4.654;2023-09-30T01:38:57;13.30;99.90
26336;DHT22;14047;50.936;4.654;2023-09-30T01:41:23;13.30;99.90
26336;DHT22;14047;50.936;4.654;2023-09-30T01:43:49;13.30;99.90
26336;DHT22;14047;50.936;4.654;2023-09-30T01:46:16;13.30;99.90
26336;DHT22;14047;50.936;4.654;2023-09-30T01:48:42;13.30;99.90
26336;DHT22;14047;50.936;4.654;2023-09-30T01:51:07;13.20;99.90
26336;DHT22;14047;50.936;4.654;2023-09-30T01:53:33;13.20;99.90
26336;DHT22;14047;50.936;4.654;2023-09-30T01:55:59;13.20;99.90
26336;DHT22;14047;50.936;4.654;2023-09-30T01:58:25;13.20;99.90
26336;DHT22;14047;50.936;4.654;2023-09-30T02:01:04;13.10;99.90
26336;DHT22;14047;50.936;4.654;2023-09-30T02:03:30;13.10;99.90
26336;DHT22;14047;50.936;4.654;2023-09-30T02:05:59;13.10;99.90
26336;DHT22;14047;50.936;4.654;2023-09-30T02:08:25;13.10;99.90
26336;DHT22;14047;50.936;4.654;2023-09-30T02:10:51;13.10;99.90
26336;DHT22;14047;50.936;4.654;2023-09-30T02:13:18;13.00;99.90
26336;DHT22;14047;50.936;4.654;2023-09-30T02:15:44;13.00;99.90
26336;DHT22;14047;50.936;4.654;2023-09-30T02:18:11;13.00;99.90
26336;DHT22;14047;50.936;4.654;2023-09-30T02:20:37;12.90;99.90
26336;DHT22;14047;50.936;4.654;2023-09-30T02:23:10;12.90;99.90
26336;DHT22;14047;50.936;4.654;2023-09-30T02:25:39;12.90;99.90
26336;DHT22;14047;50.936;4.654;2023-09-30T02:28:06;12.80;99.90
26336;DHT22;14047;50.936;4.654;2023-09-30T02:30:32;12.80;99.90
26336;DHT22;14047;50.936;4.654;2023-09-30T02:32:59;12.70;99.90
26336;DHT22;14047;50.936;4.654;2023-09-30T02:35:25;12.70;99.90
26336;DHT22;14047;50.936;4.654;2023-09-30T02:37:52;12.60;99.90
26336;DHT22;14047;50.936;4.654;2023-09-30T02:40:18;12.60;99.90
26336;DHT22;14047;50.936;4.654;2023-09-30T02:42:46;12.60;99.90
26336;DHT22;14047;50.936;4.654;2023-09-30T02:45:12;12.60;99.90
26336;DHT22;14047;50.936;4.654;2023-09-30T02:47:39;12.60;99.90
26336;DHT22;14047;50.936;4.654;2023-09-30T02:50:06;12.60;99.90
26336;DHT22;14047;50.936;4.654;2023-09-30T02:52:37;12.60;99.90
26336;DHT22;14047;50.936;4.654;2023-09-30T02:55:10;12.60;99.90
26336;DHT22;14047;50.936;4.654;2023-09-30T02:57:36;12.70;99.90
26336;DHT22;14047;50.936;4.654;2023-09-30T03:00:08;12.70;99.90
26336;DHT22;14047;50.936;4.654;2023-09-30T03:02:51;12.70;99.90
26336;DHT22;14047;50.936;4.654;2023-09-30T03:05:18;12.70;99.90
26336;DHT22;14047;50.936;4.654;2023-09-30T03:07:44;12.80;99.90
26336;DHT22;14047;50.936;4.654;2023-09-30T03:10:11;12.80;99.90
26336;DHT22;14047;50.936;4.654;2023-09-30T03:12:38;12.80;99.90
26336;DHT22;14047;50.936;4.654;2023-09-30T03:15:05;12.80;99.90
26336;DHT22;14047;50.936;4.654;2023-09-30T03:17:31;12.80;99.90
26336;DHT22;14047;50.936;4.654;2023-09-30T03:20:01;12.80;99.90
26336;DHT22;14047;50.936;4.654;2023-09-30T03:22:27;12.90;99.90
26336;DHT22;14047;50.936;4.654;2023-09-30T03:24:57;12.80;99.90
26336;DHT22;14047;50.936;4.654;2023-09-30T03:27:23;12.70;99.90
26336;DHT22;14047;50.936;4.654;2023-09-30T03:29:49;12.80;99.90
26336;DHT22;14047;50.936;4.654;2023-09-30T03:32:15;12.70;99.90
26336;DHT22;14047;50.936;4.654;2023-09-30T03:34:41;12.70;99.90
26336;DHT22;14047;50.936;4.654;2023-09-30T03:37:10;12.60;99.90
26336;DHT22;14047;50.936;4.654;2023-09-30T03:39:36;12.60;99.90
26336;DHT22;14047;50.936;4.654;2023-09-30T03:42:02;12.60;99.90
26336;DHT22;14047;50.936;4.654;2023-09-30T03:44:29;12.60;99.90
26336;DHT22;14047;50.936;4.654;2023-09-30T03:46:55;12.60;99.90
26336;DHT22;14047;50.936;4.654;2023-09-30T03:49:22;12.60;99.90
26336;DHT22;14047;50.936;4.654;2023-09-30T03:51:48;12.60;99.90
26336;DHT22;14047;50.936;4.654;2023-09-30T03:54:17;12.60;99.90
26336;DHT22;14047;50.936;4.654;2023-09-30T03:56:47;12.60;99.90
26336;DHT22;14047;50.936;4.654;2023-09-30T03:59:13;12.60;99.90
26336;DHT22;14047;50.936;4.654;2023-09-30T04:01:39;12.60;99.90
26336;DHT22;14047;50.936;4.654;2023-09-30T04:04:07;12.50;99.90
26336;DHT22;14047;50.936;4.654;2023-09-30T04:06:35;12.50;99.90
26336;DHT22;14047;50.936;4.654;2023-09-30T04:09:04;12.50;99.90
26336;DHT22;14047;50.936;4.654;2023-09-30T04:11:36;12.40;99.90
26336;DHT22;14047;50.936;4.654;2023-09-30T04:14:06;12.40;99.90
26336;DHT22;14047;50.936;4.654;2023-09-30T04:16:33;12.40;99.90
26336;DHT22;14047;50.936;4.654;2023-09-30T04:19:00;12.30;99.90
26336;DHT22;14047;50.936;4.654;2023-09-30T04:21:26;12.30;99.90
26336;DHT22;14047;50.936;4.654;2023-09-30T04:23:54;12.30;99.90
26336;DHT22;14047;50.936;4.654;2023-09-30T04:26:20;12.30;99.90
26336;DHT22;14047;50.936;4.654;2023-09-30T04:28:45;12.30;99.90
26336;DHT22;14047;50.936;4.654;2023-09-30T04:31:11;12.30;99.90
26336;DHT22;14047;50.936;4.654;2023-09-30T04:33:38;12.30;99.90
26336;DHT22;14047;50.936;4.654;2023-09-30T04:36:08;12.30;99.90
26336;DHT22;14047;50.936;4.654;2023-09-30T04:38:35;12.30;99.90
26336;DHT22;14047;50.936;4.654;2023-09-30T04:41:03;12.20;99.90
26336;DHT22;14047;50.936;4.654;2023-09-30T04:43:29;12.20;99.90
26336;DHT22;14047;50.936;4.654;2023-09-30T04:45:55;12.20;99.90
26336;DHT22;14047;50.936;4.654;2023-09-30T04:48:23;12.20;99.90
26336;DHT22;14047;50.936;4.654;2023-09-30T04:50:49;12.20;99.90
26336;DHT22;14047;50.936;4.654;2023-09-30T04:53:18;12.20;99.90
26336;DHT22;14047;50.936;4.654;2023-09-30T04:55:47;12.20;99.90
26336;DHT22;14047;50.936;4.654;2023-09-30T04:58:16;12.10;99.90
26336;DHT22;14047;50.936;4.654;2023-09-30T05:00:42;12.10;99.90
26336;DHT22;14047;50.936;4.654;2023-09-30T05:03:08;12.10;99.90
26336;DHT22;14047;50.936;4.654;2023-09-30T05:05:34;12.10;99.90
26336;DHT22;14047;50.936;4.654;2023-09-30T05:08:04;12.10;99.90
26336;DHT22;14047;50.936;4.654;2023-09-30T05:10:31;12.10;99.90
26336;DHT22;14047;50.936;4.654;2023-09-30T05:12:57;12.00;99.90
26336;DHT22;14047;50.936;4.654;2023-09-30T05:15:23;12.10;99.90
26336;DHT22;14047;50.936;4.654;2023-09-30T05:17:49;12.10;99.90
26336;DHT22;14047;50.936;4.654;2023-09-30T05:20:16;12.00;99.90
26336;DHT22;14047;50.936;4.654;2023-09-30T05:22:46;12.10;99.90
26336;DHT22;14047;50.936;4.654;2023-09-30T05:25:16;12.10;99.90
26336;DHT22;14047;50.936;4.654;2023-09-30T05:27:46;12.10;99.90
26336;DHT22;14047;50.936;4.654;2023-09-30T05:30:16;12.10;99.90
26336;DHT22;14047;50.936;4.654;2023-09-30T05:32:42;12.00;99.90
26336;DHT22;14047;50.936;4.654;2023-09-30T05:35:08;12.00;99.90
26336;DHT22;14047;50.936;4.654;2023-09-30T05:37:42;12.00;99.90
26336;DHT22;14047;50.936;4.654;2023-09-30T05:40:09;12.00;99.90
26336;DHT22;14047;50.936;4.654;2023-09-30T05:42:46;12.00;99.90
26336;DHT22;14047;50.936;4.654;2023-09-30T05:45:11;12.00;99.90
26336;DHT22;14047;50.936;4.654;2023-09-30T05:47:41;12.10;99.90
26336;DHT22;14047;50.936;4.654;2023-09-30T05:50:08;12.10;99.90
26336;DHT22;14047;50.936;4.654;2023-09-30T05:52:43;12.10;99.90
26336;DHT22;14047;50.936;4.654;2023-09-30T05:55:11;12.10;99.90
26336;DHT22;14047;50.936;4.654;2023-09-30T05:57:37;12.10;99.90
26336;DHT22;14047;50.936;4.654;2023-09-30T06:00:04;12.10;99.90
26336;DHT22;14047;50.936;4.654;2023-09-30T06:02:38;12.20;99.90
26336;DHT22;14047;50.936;4.654;2023-09-30T06:05:04;12.20;99.90
26336;DHT22;14047;50.936;4.654;2023-09-30T06:07:30;12.20;99.90
26336;DHT22;14047;50.936;4.654;2023-09-30T06:09:56;12.30;99.90
26336;DHT22;14047;50.936;4.654;2023-09-30T06:12:22;12.30;99.90
26336;DHT22;14047;50.936;4.654;2023-09-30T06:14:47;12.30;99.90
26336;DHT22;14047;50.936;4.654;2023-09-30T06:17:13;12.40;99.90
26336;DHT22;14047;50.936;4.654;2023-09-30T06:19:40;12.40;99.90
26336;DHT22;14047;50.936;4.654;2023-09-30T06:22:06;12.40;99.90
26336;DHT22;14047;50.936;4.654;2023-09-30T06:24:32;12.50;99.90
26336;DHT22;14047;50.936;4.654;2023-09-30T06:26:58;12.50;99.90
26336;DHT22;14047;50.936;4.654;2023-09-30T06:29:24;12.60;99.90
26336;DHT22;14047;50.936;4.654;2023-09-30T06:31:49;12.60;99.90
26336;DHT22;14047;50.936;4.654;2023-09-30T06:34:15;12.70;99.90
26336;DHT22;14047;50.936;4.654;2023-09-30T06:36:42;12.70;99.90
26336;DHT22;14047;50.936;4.654;2023-09-30T06:39:08;12.80;99.90
26336;DHT22;14047;50.936;4.654;2023-09-30T06:41:34;12.90;99.90
26336;DHT22;14047;50.936;4.654;2023-09-30T06:44:01;12.90;99.90
26336;DHT22;14047;50.936;4.654;2023-09-30T06:46:27;13.00;99.90
26336;DHT22;14047;50.936;4.654;2023-09-30T06:48:53;13.10;99.90
26336;DHT22;14047;50.936;4.654;2023-09-30T06:51:19;13.20;99.90
26336;DHT22;14047;50.936;4.654;2023-09-30T06:53:45;13.20;99.90
26336;DHT22;14047;50.936;4.654;2023-09-30T06:56:11;13.30;99.90
26336;DHT22;14047;50.936;4.654;2023-09-30T06:58:38;13.40;99.90
26336;DHT22;14047;50.936;4.654;2023-09-30T07:01:04;13.50;99.90
26336;DHT22;14047;50.936;4.654;2023-09-30T07:03:30;13.60;99.90
26336;DHT22;14047;50.936;4.654;2023-09-30T07:05:58;13.60;99.90
26336;DHT22;14047;50.936;4.654;2023-09-30T07:08:27;13.70;99.90
26336;DHT22;14047;50.936;4.654;2023-09-30T07:10:55;13.80;99.90
26336;DHT22;14047;50.936;4.654;2023-09-30T07:13:22;13.90;99.90
26336;DHT22;14047;50.936;4.654;2023-09-30T07:15:48;14.10;99.90
26336;DHT22;14047;50.936;4.654;2023-09-30T07:18:14;14.10;99.90
26336;DHT22;14047;50.936;4.654;2023-09-30T07:20:40;14.30;99.90
26336;DHT22;14047;50.936;4.654;2023-09-30T07:23:06;14.30;99.90
26336;DHT22;14047;50.936;4.654;2023-09-30T07:25:32;14.40;99.90
26336;DHT22;14047;50.936;4.654;2023-09-30T07:27:58;14.60;99.90
26336;DHT22;14047;50.936;4.654;2023-09-30T07:30:26;14.70;99.90
26336;DHT22;14047;50.936;4.654;2023-09-30T07:32:52;14.80;99.90
26336;DHT22;14047;50.936;4.654;2023-09-30T07:35:18;14.90;99.90
26336;DHT22;14047;50.936;4.654;2023-09-30T07:37:44;15.00;99.90
26336;DHT22;14047;50.936;4.654;2023-09-30T07:40:11;15.20;99.90
26336;DHT22;14047;50.936;4.654;2023-09-30T07:42:37;15.20;99.90
26336;DHT22;14047;50.936;4.654;2023-09-30T07:45:03;15.30;99.90
26336;DHT22;14047;50.936;4.654;2023-09-30T07:47:30;15.40;99.90
26336;DHT22;14047;50.936;4.654;2023-09-30T07:50:02;15.50;99.90
26336;DHT22;14047;50.936;4.654;2023-09-30T07:52:36;15.60;99.90
26336;DHT22;14047;50.936;4.654;2023-09-30T07:55:02;15.70;99.90
26336;DHT22;14047;50.936;4.654;2023-09-30T07:57:30;15.80;99.90
26336;DHT22;14047;50.936;4.654;2023-09-30T07:59:56;15.90;99.90
26336;DHT22;14047;50.936;4.654;2023-09-30T08:02:22;16.00;99.90
26336;DHT22;14047;50.936;4.654;2023-09-30T08:04:50;16.00;99.90
26336;DHT22;14047;50.936;4.654;2023-09-30T08:07:16;16.10;99.90
26336;DHT22;14047;50.936;4.654;2023-09-30T08:09:42;16.20;99.90
26336;DHT22;14047;50.936;4.654;2023-09-30T08:12:08;16.30;99.90
26336;DHT22;14047;50.936;4.654;2023-09-30T08:14:34;16.40;99.90
26336;DHT22;14047;50.936;4.654;2023-09-30T08:17:00;16.50;99.90
26336;DHT22;14047;50.936;4.654;2023-09-30T08:19:25;16.50;99.90
26336;DHT22;14047;50.936;4.654;2023-09-30T08:21:51;16.50;99.90
26336;DHT22;14047;50.936;4.654;2023-09-30T08:24:17;16.60;99.90
26336;DHT22;14047;50.936;4.654;2023-09-30T08:26:43;16.70;99.90
26336;DHT22;14047;50.936;4.654;2023-09-30T08:29:09;16.80;99.90
26336;DHT22;14047;50.936;4.654;2023-09-30T08:31:35;16.80;99.90
26336;DHT22;14047;50.936;4.654;2023-09-30T08:34:01;16.90;99.90
26336;DHT22;14047;50.936;4.654;2023-09-30T08:36:30;17.00;99.90
26336;DHT22;14047;50.936;4.654;2023-09-30T08:38:56;17.10;99.90
26336;DHT22;14047;50.936;4.654;2023-09-30T08:41:33;17.10;99.90
26336;DHT22;14047;50.936;4.654;2023-09-30T08:44:03;17.20;99.90
26336;DHT22;14047;50.936;4.654;2023-09-30T08:46:33;17.20;99.90
26336;DHT22;14047;50.936;4.654;2023-09-30T08:49:04;17.30;99.90
26336;DHT22;14047;50.936;4.654;2023-09-30T08:51:31;17.40;99.90
26336;DHT22;14047;50.936;4.654;2023-09-30T08:53:59;17.40;99.90
26336;DHT22;14047;50.936;4.654;2023-09-30T08:56:28;17.40;99.90
26336;DHT22;14047;50.936;4.654;2023-09-30T08:58:57;17.30;99.90
26336;DHT22;14047;50.936;4.654;2023-09-30T09:01:25;17.20;99.90
26336;DHT22;14047;50.936;4.654;2023-09-30T09:03:51;17.30;99.90
26336;DHT22;14047;50.936;4.654;2023-09-30T09:06:22;17.40;99.90
26336;DHT22;14047;50.936;4.654;2023-09-30T09:08:49;17.60;99.90
26336;DHT22;14047;50.936;4.654;2023-09-30T09:11:15;17.70;99.90
26336;DHT22;14047;50.936;4.654;2023-09-30T09:13:52;17.70;99.90
26336;DHT22;14047;50.936;4.654;2023-09-30T09:16:23;17.80;99.90
26336;DHT22;14047;50.936;4.654;2023-09-30T09:18:49;17.80;99.90
26336;DHT22;14047;50.936;4.654;2023-09-30T09:21:20;17.80;99.90
26336;DHT22;14047;50.936;4.654;2023-09-30T09:23:49;17.80;99.90
26336;DHT22;14047;50.936;4.654;2023-09-30T09:26:30;17.80;99.90
26336;DHT22;14047;50.936;4.654;2023-09-30T09:28:58;17.70;99.90
26336;DHT22;14047;50.936;4.654;2023-09-30T09:31:30;17.80;99.90
26336;DHT22;14047;50.936;4.654;2023-09-30T09:33:57;17.80;99.90
26336;DHT22;14047;50.936;4.654;2023-09-30T09:36:44;17.90;99.90
26336;DHT22;14047;50.936;4.654;2023-09-30T09:39:11;18.10;99.90
26336;DHT22;14047;50.936;4.654;2023-09-30T09:41:51;18.20;99.90
26336;DHT22;14047;50.936;4.654;2023-09-30T09:44:20;18.30;99.90
26336;DHT22;14047;50.936;4.654;2023-09-30T09:46:48;18.50;99.90
26336;DHT22;14047;50.936;4.654;2023-09-30T09:49:20;18.60;99.90
26336;DHT22;14047;50.936;4.654;2023-09-30T09:51:47;18.50;99.90
26336;DHT22;14047;50.936;4.654;2023-09-30T09:54:15;18.50;99.90
26336;DHT22;14047;50.936;4.654;2023-09-30T09:56:45;18.70;99.90
26336;DHT22;14047;50.936;4.654;2023-09-30T09:59:12;18.80;99.90
26336;DHT22;14047;50.936;4.654;2023-09-30T10:01:39;19.00;99.90
26336;DHT22;14047;50.936;4.654;2023-09-30T10:04:06;19.20;99.90
26336;DHT22;14047;50.936;4.654;2023-09-30T10:06:34;19.60;99.90
26336;DHT22;14047;50.936;4.654;2023-09-30T10:09:07;19.80;99.90
26336;DHT22;14047;50.936;4.654;2023-09-30T10:11:35;20.20;99.90
26336;DHT22;14047;50.936;4.654;2023-09-30T10:14:01;20.60;99.90
26336;DHT22;14047;50.936;4.654;2023-09-30T10:19:09;20.80;99.90
26336;DHT22;14047;50.936;4.654;2023-09-30T10:21:35;20.70;99.90
26336;DHT22;14047;50.936;4.654;2023-09-30T10:27:28;20.40;99.90
26336;DHT22;14047;50.936;4.654;2023-09-30T10:29:58;20.10;99.90
26336;DHT22;14047;50.936;4.654;2023-09-30T10:40:47;20.00;99.90
26336;DHT22;14047;50.936;4.654;2023-09-30T10:43:30;19.80;99.90
26336;DHT22;14047;50.936;4.654;2023-09-30T10:45:59;19.70;99.90
26336;DHT22;14047;50.936;4.654;2023-09-30T10:50:56;19.60;99.90
26336;DHT22;14047;50.936;4.654;2023-09-30T10:53:30;19.50;99.90
26336;DHT22;14047;50.936;4.654;2023-09-30T10:55:58;19.60;99.90
26336;DHT22;14047;50.936;4.654;2023-09-30T10:58:47;19.60;99.90
26336;DHT22;14047;50.936;4.654;2023-09-30T11:01:17;19.60;99.90
26336;DHT22;14047;50.936;4.654;2023-09-30T11:03:45;19.90;99.90
26336;DHT22;14047;50.936;4.654;2023-09-30T11:06:13;20.10;99.90
26336;DHT22;14047;50.936;4.654;2023-09-30T11:11:16;20.50;99.90
26336;DHT22;14047;50.936;4.654;2023-09-30T11:13:42;20.70;99.90
26336;DHT22;14047;50.936;4.654;2023-09-30T11:16:08;21.10;99.90
26336;DHT22;14047;50.936;4.654;2023-09-30T11:18:35;21.50;99.90
26336;DHT22;14047;50.936;4.654;2023-09-30T11:21:05;21.80;99.90
26336;DHT22;14047;50.936;4.654;2023-09-30T11:23:32;21.80;99.90
26336;DHT22;14047;50.936;4.654;2023-09-30T11:25:58;21.60;99.90
26336;DHT22;14047;50.936;4.654;2023-09-30T11:28:34;21.50;99.90
26336;DHT22;14047;50.936;4.654;2023-09-30T11:31:01;21.60;99.90
26336;DHT22;14047;50.936;4.654;2023-09-30T11:33:28;21.70;99.90
26336;DHT22;14047;50.936;4.654;2023-09-30T11:36:05;21.60;99.90
26336;DHT22;14047;50.936;4.654;2023-09-30T11:38:34;21.40;99.90
26336;DHT22;14047;50.936;4.654;2023-09-30T11:41:04;21.00;99.90
26336;DHT22;14047;50.936;4.654;2023-09-30T11:43:33;20.90;99.90
26336;DHT22;14047;50.936;4.654;2023-09-30T11:46:10;20.60;99.90
26336;DHT22;14047;50.936;4.654;2023-09-30T11:48:40;20.40;99.90
26336;DHT22;14047;50.936;4.654;2023-09-30T11:51:06;20.20;99.90
26336;DHT22;14047;50.936;4.654;2023-09-30T11:53:35;20.10;99.90
26336;DHT22;14047;50.936;4.654;2023-09-30T11:56:01;20.10;99.90
26336;DHT22;14047;50.936;4.654;2023-09-30T11:58:29;20.10;99.90
26336;DHT22;14047;50.936;4.654;2023-09-30T12:00:58;20.10;99.90
26336;DHT22;14047;50.936;4.654;2023-09-30T12:03:26;20.10;99.90
26336;DHT22;14047;50.936;4.654;2023-09-30T12:05:54;20.00;99.90
26336;DHT22;14047;50.936;4.654;2023-09-30T12:08:22;20.10;99.90
26336;DHT22;14047;50.936;4.654;2023-09-30T12:10:48;20.30;99.90
26336;DHT22;14047;50.936;4.654;2023-09-30T12:13:15;20.40;99.90
26336;DHT22;14047;50.936;4.654;2023-09-30T12:15:42;20.60;99.90
26336;DHT22;14047;50.936;4.654;2023-09-30T12:18:09;20.70;99.90
26336;DHT22;14047;50.936;4.654;2023-09-30T12:20:36;20.90;99.90
26336;DHT22;14047;50.936;4.654;2023-09-30T12:23:02;20.70;99.90
26336;DHT22;14047;50.936;4.654;2023-09-30T12:25:30;20.80;99.90
26336;DHT22;14047;50.936;4.654;2023-09-30T12:27:56;21.00;99.90
26336;DHT22;14047;50.936;4.654;2023-09-30T12:30:22;21.30;99.90
26336;DHT22;14047;50.936;4.654;2023-09-30T12:32:48;21.30;99.90
26336;DHT22;14047;50.936;4.654;2023-09-30T12:35:14;21.50;99.90
26336;DHT22;14047;50.936;4.654;2023-09-30T12:37:40;21.60;99.90
26336;DHT22;14047;50.936;4.654;2023-09-30T12:40:08;21.80;99.90
26336;DHT22;14047;50.936;4.654;2023-09-30T12:42:37;21.90;99.90
26336;DHT22;14047;50.936;4.654;2023-09-30T12:45:03;22.10;99.90
26336;DHT22;14047;50.936;4.654;2023-09-30T12:47:31;22.20;99.90
26336;DHT22;14047;50.936;4.654;2023-09-30T12:49:57;22.20;99.90
26336;DHT22;14047;50.936;4.654;2023-09-30T12:52:23;22.10;99.90
26336;DHT22;14047;50.936;4.654;2023-09-30T12:54:50;22.10;99.90
26336;DHT22;14047;50.936;4.654;2023-09-30T12:57:16;22.30;99.90
26336;DHT22;14047;50.936;4.654;2023-09-30T12:59:43;22.50;99.90
26336;DHT22;14047;50.936;4.654;2023-09-30T13:02:12;22.70;99.90
26336;DHT22;14047;50.936;4.654;2023-09-30T13:04:38;22.90;99.90
26336;DHT22;14047;50.936;4.654;2023-09-30T13:07:12;23.00;99.90
26336;DHT22;14047;50.936;4.654;2023-09-30T13:09:41;23.10;99.90
26336;DHT22;14047;50.936;4.654;2023-09-30T13:12:08;23.20;99.90
26336;DHT22;14047;50.936;4.654;2023-09-30T13:14:34;23.40;99.90
26336;DHT22;14047;50.936;4.654;2023-09-30T13:17:00;23.50;99.90
26336;DHT22;14047;50.936;4.654;2023-09-30T13:19:29;23.60;99.90
26336;DHT22;14047;50.936;4.654;2023-09-30T13:21:55;23.70;99.90
26336;DHT22;14047;50.936;4.654;2023-09-30T13:24:22;23.80;99.90
26336;DHT22;14047;50.936;4.654;2023-09-30T13:26:49;24.00;99.90
26336;DHT22;14047;50.936;4.654;2023-09-30T13:29:18;24.20;99.90
26336;DHT22;14047;50.936;4.654;2023-09-30T13:31:44;24.30;99.90
26336;DHT22;14047;50.936;4.654;2023-09-30T13:34:11;24.30;99.90
26336;DHT22;14047;50.936;4.654;2023-09-30T13:36:38;24.30;99.90
26336;DHT22;14047;50.936;4.654;2023-09-30T13:39:04;24.30;99.90
26336;DHT22;14047;50.936;4.654;2023-09-30T13:41:34;23.60;99.90
26336;DHT22;14047;50.936;4.654;2023-09-30T13:44:01;22.90;99.90
26336;DHT22;14047;50.936;4.654;2023-09-30T13:46:27;23.20;99.90
26336;DHT22;14047;50.936;4.654;2023-09-30T13:48:54;23.50;99.90
26336;DHT22;14047;50.936;4.654;2023-09-30T13:51:20;23.50;99.90
26336;DHT22;14047;50.936;4.654;2023-09-30T13:53:46;23.80;99.90
26336;DHT22;14047;50.936;4.654;2023-09-30T13:56:12;24.20;99.90
26336;DHT22;14047;50.936;4.654;2023-09-30T13:58:38;24.60;99.90
26336;DHT22;14047;50.936;4.654;2023-09-30T14:01:04;24.90;99.90
26336;DHT22;14047;50.936;4.654;2023-09-30T14:03:30;25.30;99.90
26336;DHT22;14047;50.936;4.654;2023-09-30T14:05:56;25.20;99.90
26336;DHT22;14047;50.936;4.654;2023-09-30T14:08:22;25.60;99.90
26336;DHT22;14047;50.936;4.654;2023-09-30T14:10:49;25.50;99.90
26336;DHT22;14047;50.936;4.654;2023-09-30T14:13:17;25.30;99.90
26336;DHT22;14047;50.936;4.654;2023-09-30T14:15:45;24.90;99.90
26336;DHT22;14047;50.936;4.654;2023-09-30T14:18:12;25.10;99.90
26336;DHT22;14047;50.936;4.654;2023-09-30T14:20:38;24.80;99.90
26336;DHT22;14047;50.936;4.654;2023-09-30T14:23:04;24.70;99.90
26336;DHT22;14047;50.936;4.654;2023-09-30T14:25:30;24.90;99.90
26336;DHT22;14047;50.936;4.654;2023-09-30T14:27:56;25.20;99.90
26336;DHT22;14047;50.936;4.654;2023-09-30T14:30:25;25.50;99.90
26336;DHT22;14047;50.936;4.654;2023-09-30T14:32:52;25.70;99.90
26336;DHT22;14047;50.936;4.654;2023-09-30T14:35:17;26.00;99.90
26336;DHT22;14047;50.936;4.654;2023-09-30T14:37:44;26.20;99.90
26336;DHT22;14047;50.936;4.654;2023-09-30T14:40:10;26.40;99.90
26336;DHT22;14047;50.936;4.654;2023-09-30T14:42:40;26.70;99.90
26336;DHT22;14047;50.936;4.654;2023-09-30T14:45:08;26.70;99.90
26336;DHT22;14047;50.936;4.654;2023-09-30T14:47:34;26.60;99.90
26336;DHT22;14047;50.936;4.654;2023-09-30T14:50:00;26.70;99.90
26336;DHT22;14047;50.936;4.654;2023-09-30T14:52:28;26.80;99.90
26336;DHT22;14047;50.936;4.654;2023-09-30T14:54:54;26.90;99.90
26336;DHT22;14047;50.936;4.654;2023-09-30T14:57:20;26.50;99.90
26336;DHT22;14047;50.936;4.654;2023-09-30T14:59:48;26.60;99.90
26336;DHT22;14047;50.936;4.654;2023-09-30T15:02:14;26.50;99.90
26336;DHT22;14047;50.936;4.654;2023-09-30T15:04:41;26.60;99.90
26336;DHT22;14047;50.936;4.654;2023-09-30T15:07:06;26.70;99.90
26336;DHT22;14047;50.936;4.654;2023-09-30T15:09:32;26.90;99.90
26336;DHT22;14047;50.936;4.654;2023-09-30T15:11:58;27.10;99.90
26336;DHT22;14047;50.936;4.654;2023-09-30T15:14:24;27.50;99.90
26336;DHT22;14047;50.936;4.654;2023-09-30T15:16:50;27.80;99.90
26336;DHT22;14047;50.936;4.654;2023-09-30T15:19:16;28.30;99.90
26336;DHT22;14047;50.936;4.654;2023-09-30T15:21:43;28.40;99.90
26336;DHT22;14047;50.936;4.654;2023-09-30T15:24:09;28.20;99.90
26336;DHT22;14047;50.936;4.654;2023-09-30T15:26:36;28.40;99.90
26336;DHT22;14047;50.936;4.654;2023-09-30T15:29:02;27.60;99.90
26336;DHT22;14047;50.936;4.654;2023-09-30T15:31:32;27.60;99.90
26336;DHT22;14047;50.936;4.654;2023-09-30T15:33:58;27.80;99.90
26336;DHT22;14047;50.936;4.654;2023-09-30T15:36:24;27.80;99.90
26336;DHT22;14047;50.936;4.654;2023-09-30T15:38:51;28.00;99.90
26336;DHT22;14047;50.936;4.654;2023-09-30T15:41:23;27.90;99.90
26336;DHT22;14047;50.936;4.654;2023-09-30T15:43:50;27.40;99.90
26336;DHT22;14047;50.936;4.654;2023-09-30T15:46:15;27.10;99.90
26336;DHT22;14047;50.936;4.654;2023-09-30T15:48:41;27.00;99.90
26336;DHT22;14047;50.936;4.654;2023-09-30T15:51:07;27.00;99.90